sensor_id;sensor_type;location;lat;lon;timestamp;pressure;altitude;pressure_sealevel;temperature;humidity
50310;BME280;36207;51.850;21.698;2022-12-11T00:02:23;98929.74;;;0.45;81.04
50310;BME280;36207;51.850;21.698;2022-12-11T00:04:50;98925.37;;;0.45;81.14
50310;BME280;36207;51.850;21.698;2022-12-11T00:07:16;98922.46;;;0.46;81.04
50310;BME280;36207;51.850;21.698;2022-12-11T00:09:42;98923.16;;;0.46;81.03
50310;BME280;36207;51.850;21.698;2022-12-11T00:12:09;98919.91;;;0.45;80.95
50310;BME280;36207;51.850;21.698;2022-12-11T00:14:35;98920.92;;;0.46;81.05
50310;BME280;36207;51.850;21.698;2022-12-11T00:17:05;98918.20;;;0.44;80.92
50310;BME280;36207;51.850;21.698;2022-12-11T00:19:31;98922.59;;;0.43;80.90
50310;BME280;36207;51.850;21.698;2022-12-11T00:21:57;98925.44;;;0.42;81.09
50310;BME280;36207;51.850;21.698;2022-12-11T00:24:23;98927.29;;;0.41;80.97
50310;BME280;36207;51.850;21.698;2022-12-11T00:26:50;98927.77;;;0.40;80.96
50310;BME280;36207;51.850;21.698;2022-12-11T00:29:16;98926.52;;;0.38;80.93
50310;BME280;36207;51.850;21.698;2022-12-11T00:31:42;98926.08;;;0.39;81.07
50310;BME280;36207;51.850;21.698;2022-12-11T00:34:09;98927.61;;;0.40;80.92
50310;BME280;36207;51.850;21.698;2022-12-11T00:36:37;98924.91;;;0.38;81.01
50310;BME280;36207;51.850;21.698;2022-12-11T00:39:04;98927.42;;;0.37;81.00
50310;BME280;36207;51.850;21.698;2022-12-11T00:41:30;98928.12;;;0.37;80.92
50310;BME280;36207;51.850;21.698;2022-12-11T00:43:57;98922.23;;;0.37;80.99
50310;BME280;36207;51.850;21.698;2022-12-11T00:46:23;98925.70;;;0.37;81.03
50310;BME280;36207;51.850;21.698;2022-12-11T00:48:49;98924.86;;;0.37;80.87
50310;BME280;36207;51.850;21.698;2022-12-11T00:51:16;98913.63;;;0.35;81.01
50310;BME280;36207;51.850;21.698;2022-12-11T00:53:43;98911.77;;;0.37;81.03
50310;BME280;36207;51.850;21.698;2022-12-11T00:56:11;98915.33;;;0.36;80.96
50310;BME280;36207;51.850;21.698;2022-12-11T00:58:38;98912.34;;;0.34;81.08
50310;BME280;36207;51.850;21.698;2022-12-11T01:01:10;98913.73;;;0.34;81.00
50310;BME280;36207;51.850;21.698;2022-12-11T01:03:37;98911.04;;;0.33;81.10
50310;BME280;36207;51.850;21.698;2022-12-11T01:06:04;98911.19;;;0.33;80.88
50310;BME280;36207;51.850;21.698;2022-12-11T01:08:31;98910.65;;;0.33;80.94
50310;BME280;36207;51.850;21.698;2022-12-11T01:11:07;98913.36;;;0.35;80.98
50310;BME280;36207;51.850;21.698;2022-12-11T01:13:34;98913.30;;;0.35;80.84
50310;BME280;36207;51.850;21.698;2022-12-11T01:16:06;98904.89;;;0.33;80.89
50310;BME280;36207;51.850;21.698;2022-12-11T01:18:32;98899.71;;;0.31;80.83
50310;BME280;36207;51.850;21.698;2022-12-11T01:20:59;98896.66;;;0.28;80.77
50310;BME280;36207;51.850;21.698;2022-12-11T01:23:30;98896.30;;;0.26;80.79
50310;BME280;36207;51.850;21.698;2022-12-11T01:25:56;98894.02;;;0.26;80.84
50310;BME280;36207;51.850;21.698;2022-12-11T01:28:23;98894.38;;;0.26;80.95
50310;BME280;36207;51.850;21.698;2022-12-11T01:30:49;98882.61;;;0.26;80.95
50310;BME280;36207;51.850;21.698;2022-12-11T01:33:15;98872.02;;;0.23;80.89
50310;BME280;36207;51.850;21.698;2022-12-11T01:35:41;98862.23;;;0.19;80.78
50310;BME280;36207;51.850;21.698;2022-12-11T01:38:08;98858.05;;;0.17;80.83
50310;BME280;36207;51.850;21.698;2022-12-11T01:40:35;98853.99;;;0.16;80.84
50310;BME280;36207;51.850;21.698;2022-12-11T01:43:01;98848.20;;;0.18;80.91
50310;BME280;36207;51.850;21.698;2022-12-11T01:45:38;98836.95;;;0.16;80.75
50310;BME280;36207;51.850;21.698;2022-12-11T01:48:08;98838.79;;;0.13;80.79
50310;BME280;36207;51.850;21.698;2022-12-11T01:51:15;98835.39;;;0.12;80.81
50310;BME280;36207;51.850;21.698;2022-12-11T01:53:46;98834.36;;;0.10;80.89
50310;BME280;36207;51.850;21.698;2022-12-11T01:56:14;98836.77;;;0.09;80.81
50310;BME280;36207;51.850;21.698;2022-12-11T01:58:46;98829.77;;;0.07;80.69
50310;BME280;36207;51.850;21.698;2022-12-11T02:01:21;98826.20;;;0.06;80.84
50310;BME280;36207;51.850;21.698;2022-12-11T02:03:51;98819.21;;;0.06;80.88
50310;BME280;36207;51.850;21.698;2022-12-11T02:06:39;98818.48;;;0.08;80.98
50310;BME280;36207;51.850;21.698;2022-12-11T02:09:12;98820.41;;;0.06;80.84
50310;BME280;36207;51.850;21.698;2022-12-11T02:17:05;98811.67;;;-0.04;80.81
50310;BME280;36207;51.850;21.698;2022-12-11T02:22:12;98812.95;;;-0.02;81.08
50310;BME280;36207;51.850;21.698;2022-12-11T02:27:48;98813.92;;;-0.03;80.94
50310;BME280;36207;51.850;21.698;2022-12-11T02:30:22;98811.52;;;-0.10;80.83
50310;BME280;36207;51.850;21.698;2022-12-11T02:35:21;98811.36;;;-0.10;80.95
50310;BME280;36207;51.850;21.698;2022-12-11T02:37:55;98806.86;;;-0.10;80.84
50310;BME280;36207;51.850;21.698;2022-12-11T02:40:26;98803.95;;;-0.07;80.98
50310;BME280;36207;51.850;21.698;2022-12-11T02:42:54;98808.39;;;-0.04;81.07
50310;BME280;36207;51.850;21.698;2022-12-11T02:45:22;98805.70;;;-0.04;80.95
50310;BME280;36207;51.850;21.698;2022-12-11T02:47:50;98812.79;;;-0.06;80.93
50310;BME280;36207;51.850;21.698;2022-12-11T02:50:20;98811.98;;;-0.07;80.87
50310;BME280;36207;51.850;21.698;2022-12-11T02:52:49;98810.45;;;-0.09;80.87
50310;BME280;36207;51.850;21.698;2022-12-11T02:55:18;98813.13;;;-0.12;80.95
50310;BME280;36207;51.850;21.698;2022-12-11T02:57:49;98804.27;;;-0.11;80.93
50310;BME280;36207;51.850;21.698;2022-12-11T03:00:16;98797.61;;;-0.14;80.87
50310;BME280;36207;51.850;21.698;2022-12-11T03:02:44;98798.90;;;-0.17;81.00
50310;BME280;36207;51.850;21.698;2022-12-11T03:05:13;98799.03;;;-0.18;80.99
50310;BME280;36207;51.850;21.698;2022-12-11T03:07:42;98795.63;;;-0.17;81.08
50310;BME280;36207;51.850;21.698;2022-12-11T03:10:12;98800.52;;;-0.15;81.03
50310;BME280;36207;51.850;21.698;2022-12-11T03:12:42;98797.63;;;-0.13;81.10
50310;BME280;36207;51.850;21.698;2022-12-11T03:15:14;98797.77;;;-0.10;81.18
50310;BME280;36207;51.850;21.698;2022-12-11T03:18:09;98798.10;;;-0.12;81.02
50310;BME280;36207;51.850;21.698;2022-12-11T03:20:46;98800.67;;;-0.15;81.02
50310;BME280;36207;51.850;21.698;2022-12-11T03:26:01;98794.38;;;-0.17;80.97
50310;BME280;36207;51.850;21.698;2022-12-11T03:28:33;98790.61;;;-0.16;81.10
50310;BME280;36207;51.850;21.698;2022-12-11T03:31:07;98785.98;;;-0.15;81.05
50310;BME280;36207;51.850;21.698;2022-12-11T03:33:38;98784.33;;;-0.16;81.08
50310;BME280;36207;51.850;21.698;2022-12-11T03:36:09;98791.88;;;-0.20;80.95
50310;BME280;36207;51.850;21.698;2022-12-11T03:38:45;98791.43;;;-0.24;80.98
50310;BME280;36207;51.850;21.698;2022-12-11T03:41:16;98786.86;;;-0.27;80.92
50310;BME280;36207;51.850;21.698;2022-12-11T03:43:44;98780.80;;;-0.28;81.02
50310;BME280;36207;51.850;21.698;2022-12-11T03:46:12;98777.83;;;-0.26;80.93
50310;BME280;36207;51.850;21.698;2022-12-11T03:48:41;98780.20;;;-0.25;81.22
50310;BME280;36207;51.850;21.698;2022-12-11T03:51:09;98777.83;;;-0.21;81.19
50310;BME280;36207;51.850;21.698;2022-12-11T03:53:36;98770.89;;;-0.23;81.09
50310;BME280;36207;51.850;21.698;2022-12-11T03:56:05;98772.33;;;-0.23;81.08
50310;BME280;36207;51.850;21.698;2022-12-11T03:58:33;98772.08;;;-0.26;81.00
50310;BME280;36207;51.850;21.698;2022-12-11T04:01:00;98769.20;;;-0.23;81.08
50310;BME280;36207;51.850;21.698;2022-12-11T04:03:26;98766.55;;;-0.23;80.99
50310;BME280;36207;51.850;21.698;2022-12-11T04:05:54;98767.56;;;-0.24;81.01
50310;BME280;36207;51.850;21.698;2022-12-11T04:08:21;98770.89;;;-0.26;80.98
50310;BME280;36207;51.850;21.698;2022-12-11T04:10:48;98771.14;;;-0.29;81.02
50310;BME280;36207;51.850;21.698;2022-12-11T04:13:35;98770.85;;;-0.32;80.97
50310;BME280;36207;51.850;21.698;2022-12-11T04:16:02;98762.23;;;-0.33;81.01
50310;BME280;36207;51.850;21.698;2022-12-11T04:18:28;98756.23;;;-0.34;80.99
50310;BME280;36207;51.850;21.698;2022-12-11T04:21:13;98759.25;;;-0.33;81.10
50310;BME280;36207;51.850;21.698;2022-12-11T04:23:58;98757.88;;;-0.33;81.02
50310;BME280;36207;51.850;21.698;2022-12-11T04:26:44;98754.64;;;-0.34;80.99
50310;BME280;36207;51.850;21.698;2022-12-11T04:29:12;98750.73;;;-0.33;81.08
50310;BME280;36207;51.850;21.698;2022-12-11T04:31:39;98752.24;;;-0.33;81.09
50310;BME280;36207;51.850;21.698;2022-12-11T04:34:05;98755.44;;;-0.31;81.10
50310;BME280;36207;51.850;21.698;2022-12-11T04:36:32;98753.56;;;-0.30;81.09
50310;BME280;36207;51.850;21.698;2022-12-11T04:38:58;98754.39;;;-0.29;81.08
50310;BME280;36207;51.850;21.698;2022-12-11T04:41:24;98751.98;;;-0.30;81.05
50310;BME280;36207;51.850;21.698;2022-12-11T04:43:51;98753.11;;;-0.31;81.09
50310;BME280;36207;51.850;21.698;2022-12-11T04:46:19;98749.79;;;-0.32;80.98
50310;BME280;36207;51.850;21.698;2022-12-11T04:48:48;98744.34;;;-0.34;81.00
50310;BME280;36207;51.850;21.698;2022-12-11T04:51:15;98737.48;;;-0.36;81.10
50310;BME280;36207;51.850;21.698;2022-12-11T04:53:42;98738.08;;;-0.36;81.09
50310;BME280;36207;51.850;21.698;2022-12-11T04:56:10;98732.39;;;-0.37;81.03
50310;BME280;36207;51.850;21.698;2022-12-11T04:58:39;98721.41;;;-0.39;80.96
50310;BME280;36207;51.850;21.698;2022-12-11T05:01:17;98716.32;;;-0.39;81.04
50310;BME280;36207;51.850;21.698;2022-12-11T05:03:45;98711.61;;;-0.41;80.99
50310;BME280;36207;51.850;21.698;2022-12-11T05:06:12;98704.36;;;-0.46;80.89
50310;BME280;36207;51.850;21.698;2022-12-11T05:08:40;98705.14;;;-0.49;80.92
50310;BME280;36207;51.850;21.698;2022-12-11T05:11:09;98703.52;;;-0.49;80.94
50310;BME280;36207;51.850;21.698;2022-12-11T05:13:37;98697.15;;;-0.44;81.19
50310;BME280;36207;51.850;21.698;2022-12-11T05:16:05;98682.96;;;-0.43;81.01
50310;BME280;36207;51.850;21.698;2022-12-11T05:18:32;98681.56;;;-0.46;80.97
50310;BME280;36207;51.850;21.698;2022-12-11T05:21:01;98679.95;;;-0.47;81.01
50310;BME280;36207;51.850;21.698;2022-12-11T05:23:28;98677.10;;;-0.50;80.94
50310;BME280;36207;51.850;21.698;2022-12-11T05:25:56;98674.59;;;-0.54;80.90
50310;BME280;36207;51.850;21.698;2022-12-11T05:28:25;98669.34;;;-0.55;80.87
50310;BME280;36207;51.850;21.698;2022-12-11T05:30:59;98666.17;;;-0.55;80.87
50310;BME280;36207;51.850;21.698;2022-12-11T05:33:27;98659.24;;;-0.56;81.04
50310;BME280;36207;51.850;21.698;2022-12-11T05:35:54;98653.99;;;-0.56;80.92
50310;BME280;36207;51.850;21.698;2022-12-11T05:38:21;98650.86;;;-0.56;80.91
50310;BME280;36207;51.850;21.698;2022-12-11T05:40:57;98652.41;;;-0.61;80.68
50310;BME280;36207;51.850;21.698;2022-12-11T05:43:26;98646.38;;;-0.66;80.75
50310;BME280;36207;51.850;21.698;2022-12-11T05:45:53;98649.08;;;-0.65;81.05
50310;BME280;36207;51.850;21.698;2022-12-11T05:48:20;98645.21;;;-0.65;80.92
50310;BME280;36207;51.850;21.698;2022-12-11T05:50:59;98645.85;;;-0.68;80.74
50310;BME280;36207;51.850;21.698;2022-12-11T05:53:27;98641.44;;;-0.75;80.77
50310;BME280;36207;51.850;21.698;2022-12-11T05:55:54;98638.37;;;-0.78;80.78
50310;BME280;36207;51.850;21.698;2022-12-11T05:58:20;98635.77;;;-0.80;80.78
50310;BME280;36207;51.850;21.698;2022-12-11T06:00:47;98639.98;;;-0.84;80.77
50310;BME280;36207;51.850;21.698;2022-12-11T06:03:13;98643.17;;;-0.86;80.77
50310;BME280;36207;51.850;21.698;2022-12-11T06:05:41;98645.80;;;-0.84;80.92
50310;BME280;36207;51.850;21.698;2022-12-11T06:08:08;98647.08;;;-0.83;80.93
50310;BME280;36207;51.850;21.698;2022-12-11T06:10:34;98649.21;;;-0.82;81.00
50310;BME280;36207;51.850;21.698;2022-12-11T06:13:00;98647.92;;;-0.81;80.90
50310;BME280;36207;51.850;21.698;2022-12-11T06:15:27;98649.44;;;-0.80;80.88
50310;BME280;36207;51.850;21.698;2022-12-11T06:17:53;98653.50;;;-0.80;80.81
50310;BME280;36207;51.850;21.698;2022-12-11T06:20:19;98656.35;;;-0.82;80.83
50310;BME280;36207;51.850;21.698;2022-12-11T06:22:46;98659.38;;;-0.84;80.67
50310;BME280;36207;51.850;21.698;2022-12-11T06:25:12;98665.70;;;-0.82;80.88
50310;BME280;36207;51.850;21.698;2022-12-11T06:27:39;98662.61;;;-0.81;80.76
50310;BME280;36207;51.850;21.698;2022-12-11T06:30:06;98663.30;;;-0.83;80.81
50310;BME280;36207;51.850;21.698;2022-12-11T06:32:33;98660.61;;;-0.84;80.82
50310;BME280;36207;51.850;21.698;2022-12-11T06:34:59;98662.80;;;-0.85;80.68
50310;BME280;36207;51.850;21.698;2022-12-11T06:37:25;98659.27;;;-0.86;80.71
50310;BME280;36207;51.850;21.698;2022-12-11T06:39:51;98660.23;;;-0.85;80.84
50310;BME280;36207;51.850;21.698;2022-12-11T06:42:18;98656.40;;;-0.86;80.73
50310;BME280;36207;51.850;21.698;2022-12-11T06:44:44;98654.50;;;-0.86;80.72
50310;BME280;36207;51.850;21.698;2022-12-11T06:47:11;98650.58;;;-0.87;80.66
50310;BME280;36207;51.850;21.698;2022-12-11T06:49:37;98652.19;;;-0.89;80.54
50310;BME280;36207;51.850;21.698;2022-12-11T06:52:05;98648.81;;;-0.93;80.60
50310;BME280;36207;51.850;21.698;2022-12-11T06:54:32;98643.91;;;-0.97;80.61
50310;BME280;36207;51.850;21.698;2022-12-11T06:57:01;98644.55;;;-0.98;80.58
50310;BME280;36207;51.850;21.698;2022-12-11T06:59:27;98639.00;;;-0.98;80.61
50310;BME280;36207;51.850;21.698;2022-12-11T07:01:53;98632.16;;;-0.98;80.53
50310;BME280;36207;51.850;21.698;2022-12-11T07:04:20;98633.17;;;-0.98;80.65
50310;BME280;36207;51.850;21.698;2022-12-11T07:06:49;98625.33;;;-1.00;80.53
50310;BME280;36207;51.850;21.698;2022-12-11T07:09:16;98625.33;;;-1.03;80.59
50310;BME280;36207;51.850;21.698;2022-12-11T07:11:43;98624.50;;;-1.08;80.49
50310;BME280;36207;51.850;21.698;2022-12-11T07:14:09;98627.22;;;-1.10;80.57
50310;BME280;36207;51.850;21.698;2022-12-11T07:16:35;98621.15;;;-1.09;80.60
50310;BME280;36207;51.850;21.698;2022-12-11T07:19:02;98620.35;;;-1.08;80.67
50310;BME280;36207;51.850;21.698;2022-12-11T07:21:28;98614.58;;;-1.06;80.67
50310;BME280;36207;51.850;21.698;2022-12-11T07:23:55;98608.21;;;-1.03;80.74
50310;BME280;36207;51.850;21.698;2022-12-11T07:26:21;98608.06;;;-1.03;80.69
50310;BME280;36207;51.850;21.698;2022-12-11T07:28:48;98609.98;;;-1.04;80.60
50310;BME280;36207;51.850;21.698;2022-12-11T07:31:20;98607.90;;;-1.06;80.64
50310;BME280;36207;51.850;21.698;2022-12-11T07:33:47;98608.54;;;-1.09;80.54
50310;BME280;36207;51.850;21.698;2022-12-11T07:36:17;98604.36;;;-1.09;80.48
50310;BME280;36207;51.850;21.698;2022-12-11T07:38:43;98599.14;;;-1.09;80.59
50310;BME280;36207;51.850;21.698;2022-12-11T07:41:11;98600.30;;;-1.10;80.50
50310;BME280;36207;51.850;21.698;2022-12-11T07:43:39;98595.84;;;-1.12;80.48
50310;BME280;36207;51.850;21.698;2022-12-11T07:46:27;98596.22;;;-1.12;80.54
50310;BME280;36207;51.850;21.698;2022-12-11T07:48:54;98596.20;;;-1.17;80.29
50310;BME280;36207;51.850;21.698;2022-12-11T07:51:27;98596.94;;;-1.20;80.37
50310;BME280;36207;51.850;21.698;2022-12-11T07:53:56;98591.02;;;-1.18;80.63
50310;BME280;36207;51.850;21.698;2022-12-11T07:56:23;98590.04;;;-1.17;80.53
50310;BME280;36207;51.850;21.698;2022-12-11T07:58:50;98589.20;;;-1.19;80.55
50310;BME280;36207;51.850;21.698;2022-12-11T08:01:19;98589.66;;;-1.18;80.62
50310;BME280;36207;51.850;21.698;2022-12-11T08:03:47;98587.98;;;-1.19;80.56
50310;BME280;36207;51.850;21.698;2022-12-11T08:06:14;98581.38;;;-1.19;80.43
50310;BME280;36207;51.850;21.698;2022-12-11T08:08:40;98577.11;;;-1.20;80.51
50310;BME280;36207;51.850;21.698;2022-12-11T08:11:12;98574.85;;;-1.23;80.32
50310;BME280;36207;51.850;21.698;2022-12-11T08:13:40;98572.92;;;-1.20;80.52
50310;BME280;36207;51.850;21.698;2022-12-11T08:16:09;98569.59;;;-1.18;80.41
50310;BME280;36207;51.850;21.698;2022-12-11T08:18:37;98565.77;;;-1.19;80.24
50310;BME280;36207;51.850;21.698;2022-12-11T08:21:09;98560.83;;;-1.22;80.48
50310;BME280;36207;51.850;21.698;2022-12-11T08:23:36;98559.12;;;-1.22;80.41
50310;BME280;36207;51.850;21.698;2022-12-11T08:26:04;98559.85;;;-1.23;80.43
50310;BME280;36207;51.850;21.698;2022-12-11T08:28:31;98554.20;;;-1.26;80.34
50310;BME280;36207;51.850;21.698;2022-12-11T08:30:58;98549.69;;;-1.24;80.37
50310;BME280;36207;51.850;21.698;2022-12-11T08:33:25;98547.64;;;-1.27;80.37
50310;BME280;36207;51.850;21.698;2022-12-11T08:35:51;98547.98;;;-1.24;80.39
50310;BME280;36207;51.850;21.698;2022-12-11T08:38:17;98553.81;;;-1.23;80.32
50310;BME280;36207;51.850;21.698;2022-12-11T08:40:44;98554.15;;;-1.25;80.31
50310;BME280;36207;51.850;21.698;2022-12-11T08:43:10;98548.52;;;-1.29;80.45
50310;BME280;36207;51.850;21.698;2022-12-11T08:45:37;98552.39;;;-1.27;80.42
50310;BME280;36207;51.850;21.698;2022-12-11T08:48:03;98553.41;;;-1.27;80.33
50310;BME280;36207;51.850;21.698;2022-12-11T08:50:30;98554.52;;;-1.25;80.29
50310;BME280;36207;51.850;21.698;2022-12-11T08:52:57;98551.77;;;-1.26;80.17
50310;BME280;36207;51.850;21.698;2022-12-11T08:55:23;98538.84;;;-1.30;80.21
50310;BME280;36207;51.850;21.698;2022-12-11T08:57:49;98533.45;;;-1.32;80.30
50310;BME280;36207;51.850;21.698;2022-12-11T09:00:16;98533.68;;;-1.32;80.32
50310;BME280;36207;51.850;21.698;2022-12-11T09:02:43;98530.86;;;-1.34;80.18
50310;BME280;36207;51.850;21.698;2022-12-11T09:05:10;98531.02;;;-1.34;80.32
50310;BME280;36207;51.850;21.698;2022-12-11T09:07:37;98529.90;;;-1.35;80.10
50310;BME280;36207;51.850;21.698;2022-12-11T09:10:05;98521.63;;;-1.35;80.25
50310;BME280;36207;51.850;21.698;2022-12-11T09:12:33;98515.60;;;-1.35;80.25
50310;BME280;36207;51.850;21.698;2022-12-11T09:14:59;98513.42;;;-1.36;80.26
50310;BME280;36207;51.850;21.698;2022-12-11T09:17:26;98510.27;;;-1.37;80.34
50310;BME280;36207;51.850;21.698;2022-12-11T09:19:52;98504.96;;;-1.35;80.25
50310;BME280;36207;51.850;21.698;2022-12-11T09:22:19;98497.92;;;-1.33;80.29
50310;BME280;36207;51.850;21.698;2022-12-11T09:24:45;98494.40;;;-1.27;80.41
50310;BME280;36207;51.850;21.698;2022-12-11T09:27:12;98488.57;;;-1.28;80.23
50310;BME280;36207;51.850;21.698;2022-12-11T09:29:38;98490.19;;;-1.25;80.45
50310;BME280;36207;51.850;21.698;2022-12-11T09:32:04;98490.10;;;-1.22;80.38
50310;BME280;36207;51.850;21.698;2022-12-11T09:34:31;98485.23;;;-1.22;80.24
50310;BME280;36207;51.850;21.698;2022-12-11T09:36:58;98473.92;;;-1.28;80.09
50310;BME280;36207;51.850;21.698;2022-12-11T09:39:24;98468.04;;;-1.30;80.15
50310;BME280;36207;51.850;21.698;2022-12-11T09:44:50;98460.42;;;-1.28;80.20
50310;BME280;36207;51.850;21.698;2022-12-11T09:50:21;98459.11;;;-1.30;80.18
50310;BME280;36207;51.850;21.698;2022-12-11T10:02:23;98429.49;;;-1.27;80.22
50310;BME280;36207;51.850;21.698;2022-12-11T10:07:21;98425.60;;;-1.21;80.17
50310;BME280;36207;51.850;21.698;2022-12-11T10:12:54;98423.83;;;-1.17;80.25
50310;BME280;36207;51.850;21.698;2022-12-11T10:15:47;98420.47;;;-1.19;80.22
50310;BME280;36207;51.850;21.698;2022-12-11T10:18:18;98418.15;;;-1.18;80.16
50310;BME280;36207;51.850;21.698;2022-12-11T10:20:49;98413.69;;;-1.14;80.32
50310;BME280;36207;51.850;21.698;2022-12-11T10:23:21;98405.35;;;-1.10;80.28
50310;BME280;36207;51.850;21.698;2022-12-11T10:26:16;98409.91;;;-1.07;80.28
50310;BME280;36207;51.850;21.698;2022-12-11T10:28:43;98405.45;;;-1.06;80.08
50310;BME280;36207;51.850;21.698;2022-12-11T10:31:12;98405.27;;;-1.07;79.95
50310;BME280;36207;51.850;21.698;2022-12-11T10:33:59;98401.19;;;-1.08;80.03
50310;BME280;36207;51.850;21.698;2022-12-11T10:36:33;98397.61;;;-1.11;79.86
50310;BME280;36207;51.850;21.698;2022-12-11T10:39:00;98400.61;;;-1.13;79.88
50310;BME280;36207;51.850;21.698;2022-12-11T10:41:37;98398.67;;;-1.13;79.94
50310;BME280;36207;51.850;21.698;2022-12-11T10:44:25;98397.96;;;-1.12;80.16
50310;BME280;36207;51.850;21.698;2022-12-11T10:47:13;98395.73;;;-1.12;79.90
50310;BME280;36207;51.850;21.698;2022-12-11T10:49:58;98390.30;;;-1.12;80.07
50310;BME280;36207;51.850;21.698;2022-12-11T10:52:36;98379.90;;;-1.14;79.91
50310;BME280;36207;51.850;21.698;2022-12-11T10:55:07;98376.27;;;-1.20;79.85
50310;BME280;36207;51.850;21.698;2022-12-11T10:57:42;98375.48;;;-1.21;80.06
50310;BME280;36207;51.850;21.698;2022-12-11T11:00:29;98369.21;;;-1.19;79.90
50310;BME280;36207;51.850;21.698;2022-12-11T11:02:57;98371.37;;;-1.20;79.79
50310;BME280;36207;51.850;21.698;2022-12-11T11:05:30;98363.63;;;-1.21;79.72
50310;BME280;36207;51.850;21.698;2022-12-11T11:08:18;98363.29;;;-1.23;79.63
50310;BME280;36207;51.850;21.698;2022-12-11T11:10:56;98362.11;;;-1.25;79.66
50310;BME280;36207;51.850;21.698;2022-12-11T11:13:26;98361.18;;;-1.30;79.54
50310;BME280;36207;51.850;21.698;2022-12-11T11:16:10;98358.74;;;-1.32;79.79
50310;BME280;36207;51.850;21.698;2022-12-11T11:18:39;98354.95;;;-1.31;79.81
50310;BME280;36207;51.850;21.698;2022-12-11T11:21:22;98352.36;;;-1.29;79.81
50310;BME280;36207;51.850;21.698;2022-12-11T11:24:51;98348.34;;;-1.28;79.79
50310;BME280;36207;51.850;21.698;2022-12-11T11:30:00;98343.91;;;-1.27;79.70
50310;BME280;36207;51.850;21.698;2022-12-11T11:32:36;98342.98;;;-1.28;79.77
50310;BME280;36207;51.850;21.698;2022-12-11T11:37:42;98335.63;;;-1.33;79.66
50310;BME280;36207;51.850;21.698;2022-12-11T11:40:20;98334.02;;;-1.33;79.63
50310;BME280;36207;51.850;21.698;2022-12-11T11:42:55;98328.94;;;-1.31;79.54
50310;BME280;36207;51.850;21.698;2022-12-11T11:45:50;98330.63;;;-1.32;79.55
50310;BME280;36207;51.850;21.698;2022-12-11T11:48:30;98330.88;;;-1.35;79.60
50310;BME280;36207;51.850;21.698;2022-12-11T11:51:04;98326.94;;;-1.40;79.56
50310;BME280;36207;51.850;21.698;2022-12-11T11:53:34;98322.65;;;-1.42;79.51
50310;BME280;36207;51.850;21.698;2022-12-11T11:56:36;98321.50;;;-1.45;79.36
50310;BME280;36207;51.850;21.698;2022-12-11T12:01:46;98315.10;;;-1.45;79.16
50310;BME280;36207;51.850;21.698;2022-12-11T12:04:13;98317.38;;;-1.46;79.11
50310;BME280;36207;51.850;21.698;2022-12-11T12:06:55;98321.55;;;-1.49;79.28
50310;BME280;36207;51.850;21.698;2022-12-11T12:17:30;98316.52;;;-1.70;79.17
50310;BME280;36207;51.850;21.698;2022-12-11T12:20:36;98316.91;;;-1.70;79.36
50310;BME280;36207;51.850;21.698;2022-12-11T12:28:35;98318.53;;;-1.63;79.35
50310;BME280;36207;51.850;21.698;2022-12-11T12:34:32;98328.23;;;-1.68;79.10
50310;BME280;36207;51.850;21.698;2022-12-11T12:49:42;98324.44;;;-1.95;79.11
50310;BME280;36207;51.850;21.698;2022-12-11T12:52:16;98327.46;;;-1.99;79.07
50310;BME280;36207;51.850;21.698;2022-12-11T12:54:45;98324.96;;;-2.05;79.26
50310;BME280;36207;51.850;21.698;2022-12-11T12:57:36;98327.04;;;-2.08;79.50
50310;BME280;36207;51.850;21.698;2022-12-11T13:00:05;98328.46;;;-2.09;79.30
50310;BME280;36207;51.850;21.698;2022-12-11T13:02:37;98326.09;;;-2.10;79.41
50310;BME280;36207;51.850;21.698;2022-12-11T13:05:22;98329.48;;;-2.08;79.49
50310;BME280;36207;51.850;21.698;2022-12-11T13:07:56;98328.67;;;-2.09;79.34
50310;BME280;36207;51.850;21.698;2022-12-11T13:10:27;98331.94;;;-2.10;79.43
50310;BME280;36207;51.850;21.698;2022-12-11T13:12:55;98328.61;;;-2.12;79.52
50310;BME280;36207;51.850;21.698;2022-12-11T13:15:40;98333.04;;;-2.15;79.47
50310;BME280;36207;51.850;21.698;2022-12-11T13:18:36;98329.52;;;-2.16;79.47
50310;BME280;36207;51.850;21.698;2022-12-11T13:21:29;98331.93;;;-2.16;79.45
50310;BME280;36207;51.850;21.698;2022-12-11T13:26:50;98330.45;;;-2.17;79.46
50310;BME280;36207;51.850;21.698;2022-12-11T13:32:21;98330.26;;;-2.21;79.52
50310;BME280;36207;51.850;21.698;2022-12-11T13:34:54;98332.99;;;-2.22;79.54
50310;BME280;36207;51.850;21.698;2022-12-11T13:39:51;98325.41;;;-2.23;79.67
50310;BME280;36207;51.850;21.698;2022-12-11T13:42:27;98321.79;;;-2.23;79.73
50310;BME280;36207;51.850;21.698;2022-12-11T13:44:54;98319.02;;;-2.24;79.67
50310;BME280;36207;51.850;21.698;2022-12-11T13:47:22;98315.89;;;-2.24;79.71
50310;BME280;36207;51.850;21.698;2022-12-11T13:49:53;98314.33;;;-2.24;79.65
50310;BME280;36207;51.850;21.698;2022-12-11T13:52:24;98308.86;;;-2.25;79.63
50310;BME280;36207;51.850;21.698;2022-12-11T13:54:54;98304.79;;;-2.25;79.52
50310;BME280;36207;51.850;21.698;2022-12-11T13:57:22;98295.81;;;-2.26;79.56
50310;BME280;36207;51.850;21.698;2022-12-11T13:59:52;98287.48;;;-2.28;79.46
50310;BME280;36207;51.850;21.698;2022-12-11T14:02:31;98290.34;;;-2.30;79.48
50310;BME280;36207;51.850;21.698;2022-12-11T14:05:04;98297.08;;;-2.34;79.41
50310;BME280;36207;51.850;21.698;2022-12-11T14:07:41;98296.78;;;-2.40;79.52
50310;BME280;36207;51.850;21.698;2022-12-11T14:10:23;98298.39;;;-2.46;79.47
50310;BME280;36207;51.850;21.698;2022-12-11T14:15:27;98296.23;;;-2.57;79.60
50310;BME280;36207;51.850;21.698;2022-12-11T14:17:55;98298.92;;;-2.61;79.72
50310;BME280;36207;51.850;21.698;2022-12-11T14:20:26;98292.64;;;-2.65;79.68
50310;BME280;36207;51.850;21.698;2022-12-11T14:23:12;98287.86;;;-2.71;79.73
50310;BME280;36207;51.850;21.698;2022-12-11T14:28:21;98277.91;;;-2.76;79.90
50310;BME280;36207;51.850;21.698;2022-12-11T14:30:59;98269.35;;;-2.80;79.90
50310;BME280;36207;51.850;21.698;2022-12-11T14:33:33;98267.51;;;-2.84;79.92
50310;BME280;36207;51.850;21.698;2022-12-11T14:36:02;98265.34;;;-2.89;79.94
50310;BME280;36207;51.850;21.698;2022-12-11T14:38:36;98266.34;;;-2.91;79.99
50310;BME280;36207;51.850;21.698;2022-12-11T14:41:12;98270.48;;;-2.92;80.08